Time;durP1;ratioP1;P1;durP2;ratioP2;P2;SDS_P1;SDS_P2;PMS_P1;PMS_P2;Temp;Humidity;BMP_temperature;BMP_pressure;BME280_temperature;BME280_humidity;BME280_pressure;Samples;Min_cycle;Max_cycle;Signal;HPM_P1;HPM_P2
2022/01/24 00:00:38;;;;;;;;;;;-2.60;99.90;;;;;;5054394;28;20440;-50
2022/01/24 00:03:06;;;;;;;;;;;-2.60;99.90;;;;;;5053747;28;19943;-50
2022/01/24 00:05:33;;;;;;;;;;;-2.60;99.90;;;;;;5052251;28;19924;-50
2022/01/24 00:08:00;;;;;;;;;;;-2.60;99.90;;;;;;5053446;28;19978;-50
2022/01/24 00:10:28;;;;;;;;;;;-2.60;99.90;;;;;;5063006;28;19928;-50
2022/01/24 00:13:20;;;;;;;;;;;-2.60;99.90;;;;;;5068299;28;19978;-50
2022/01/24 00:15:56;;;;;;;;;;;-2.60;99.90;;;;;;5055539;28;20383;-50
2022/01/24 00:26:38;;;;;;;;;;;-2.60;99.90;;;;;;5053075;28;20379;-50
2022/01/24 00:26:47;;;;;;;;;;;-2.70;99.90;;;;;;5064917;28;19928;-50
2022/01/24 00:29:14;;;;;;;;;;;-2.70;99.90;;;;;;5052876;28;19925;-50
2022/01/24 00:31:42;;;;;;;;;;;-2.70;99.90;;;;;;5064907;28;19928;-51
2022/01/24 00:34:09;;;;;;;;;;;-2.70;99.90;;;;;;5059095;28;19982;-50
2022/01/24 00:36:37;;;;;;;;;;;-2.70;99.90;;;;;;5061534;28;19932;-50
2022/01/24 00:39:05;;;;;;;;;;;-2.70;99.90;;;;;;5072685;28;20027;-50
2022/01/24 00:41:38;;;;;;;;;;;-2.70;99.90;;;;;;5072860;28;19932;-50
2022/01/24 00:44:28;;;;;;;;;;;-2.70;99.90;;;;;;5059722;28;19933;-50
2022/01/24 00:46:59;;;;;;;;;;;-2.70;99.90;;;;;;5053138;28;19925;-50
2022/01/24 00:49:46;;;;;;;;;;;-2.70;99.90;;;;;;5052520;28;19959;-50
2022/01/24 00:54:57;;;;;;;;;;;-2.60;99.90;;;;;;5070162;28;19928;-50
2022/01/24 00:57:25;;;;;;;;;;;-2.40;99.90;;;;;;5072223;28;19977;-50
2022/01/24 00:59:51;;;;;;;;;;;-2.50;99.90;;;;;;5071861;28;19928;-50
2022/01/24 01:02:20;;;;;;;;;;;-2.50;99.90;;;;;;5068351;28;20333;-50
2022/01/24 01:05:01;;;;;;;;;;;-2.40;99.90;;;;;;5055610;28;19956;-51
2022/01/24 01:07:35;;;;;;;;;;;-2.40;99.90;;;;;;5052211;28;20034;-50
2022/01/24 01:18:18;;;;;;;;;;;-2.60;99.90;;;;;;5051704;28;19966;-50
2022/01/24 01:21:07;;;;;;;;;;;-2.60;99.90;;;;;;5052211;28;19925;-50
2022/01/24 01:23:37;;;;;;;;;;;-2.60;99.90;;;;;;5060297;28;19952;-50
2022/01/24 01:26:07;;;;;;;;;;;-2.60;99.90;;;;;;5071966;28;20015;-50
2022/01/24 01:28:35;;;;;;;;;;;-2.70;99.90;;;;;;5070992;28;19924;-51
2022/01/24 01:31:07;;;;;;;;;;;-2.80;99.90;;;;;;5069101;28;19931;-50
2022/01/24 01:33:47;;;;;;;;;;;-2.80;99.90;;;;;;5071498;28;19925;-49
2022/01/24 01:36:20;;;;;;;;;;;-2.80;99.90;;;;;;5071319;28;20344;-50
2022/01/24 01:39:31;;;;;;;;;;;-2.80;99.90;;;;;;5071504;28;19951;-50
2022/01/24 01:53:06;;;;;;;;;;;-3.00;99.90;;;;;;5067153;28;20390;-50
2022/01/24 01:55:40;;;;;;;;;;;-3.00;99.90;;;;;;5070801;28;19924;-51
2022/01/24 01:58:07;;;;;;;;;;;-3.00;99.90;;;;;;5071199;28;19931;-50
2022/01/24 02:00:34;;;;;;;;;;;-3.00;99.90;;;;;;5071398;28;20447;-50
2022/01/24 02:03:03;;;;;;;;;;;-2.90;99.90;;;;;;5054990;28;19925;-50
2022/01/24 02:05:31;;;;;;;;;;;-2.90;99.90;;;;;;5070514;28;19932;-50
2022/01/24 02:07:58;;;;;;;;;;;-2.90;99.90;;;;;;5074799;28;19924;-50
2022/01/24 02:10:25;;;;;;;;;;;-2.90;99.90;;;;;;5075551;28;19990;-50
2022/01/24 02:12:54;;;;;;;;;;;-2.90;99.90;;;;;;5074644;28;19924;-50
2022/01/24 02:15:26;;;;;;;;;;;-2.90;99.90;;;;;;5061942;28;19929;-50
2022/01/24 02:18:03;;;;;;;;;;;-2.90;99.90;;;;;;5054988;28;19939;-50
2022/01/24 02:20:43;;;;;;;;;;;-2.90;99.90;;;;;;5055039;28;19979;-50
2022/01/24 02:23:36;;;;;;;;;;;-3.00;99.90;;;;;;5071482;28;19929;-50
2022/01/24 02:26:05;;;;;;;;;;;-3.10;99.90;;;;;;5054880;28;19925;-50
2022/01/24 02:28:44;;;;;;;;;;;-3.10;99.90;;;;;;5054612;28;19925;-50
2022/01/24 02:31:25;;;;;;;;;;;-3.10;99.90;;;;;;5055708;28;19932;-50
2022/01/24 02:33:52;;;;;;;;;;;-3.10;99.90;;;;;;5056721;28;19925;-50
2022/01/24 02:36:20;;;;;;;;;;;-3.10;99.90;;;;;;5074915;28;19924;-50
2022/01/24 02:39:01;;;;;;;;;;;-3.20;99.90;;;;;;5073924;28;20377;-50
2022/01/24 02:49:40;;;;;;;;;;;-3.20;99.90;;;;;;5074246;28;19949;-50
2022/01/24 02:52:08;;;;;;;;;;;-3.20;99.90;;;;;;5061936;28;19928;-50
2022/01/24 02:54:37;;;;;;;;;;;-3.20;99.90;;;;;;5054325;28;19978;-50
2022/01/24 02:57:04;;;;;;;;;;;-3.20;99.90;;;;;;5054474;28;19943;-50
2022/01/24 02:59:31;;;;;;;;;;;-3.30;99.90;;;;;;5054121;28;19929;-50
2022/01/24 03:01:58;;;;;;;;;;;-3.30;99.90;;;;;;5064943;28;19925;-50
2022/01/24 03:04:25;;;;;;;;;;;-3.30;99.90;;;;;;5073761;28;19924;-50
2022/01/24 03:06:52;;;;;;;;;;;-3.30;99.90;;;;;;5074123;28;19990;-50
2022/01/24 03:09:21;;;;;;;;;;;-3.30;99.90;;;;;;5074108;28;19932;-49
2022/01/24 03:14:37;;;;;;;;;;;-3.40;99.90;;;;;;5055939;28;19930;-50
2022/01/24 03:17:05;;;;;;;;;;;-3.40;99.90;;;;;;5073925;28;20385;-50
2022/01/24 03:19:32;;;;;;;;;;;-3.40;99.90;;;;;;5074125;28;20377;-50
2022/01/24 03:21:59;;;;;;;;;;;-3.40;99.90;;;;;;5063770;28;19978;-50
2022/01/24 03:24:26;;;;;;;;;;;-3.40;99.90;;;;;;5054642;28;19971;-49
2022/01/24 03:26:54;;;;;;;;;;;-3.40;99.90;;;;;;5054226;28;19925;-50
2022/01/24 03:29:21;;;;;;;;;;;-3.40;99.90;;;;;;5053594;28;20452;-50
2022/01/24 03:31:47;;;;;;;;;;;-3.40;99.90;;;;;;5062226;28;19938;-50
2022/01/24 03:34:15;;;;;;;;;;;-3.50;99.90;;;;;;5073544;28;19928;-50
2022/01/24 03:36:42;;;;;;;;;;;-3.50;99.90;;;;;;5074061;28;20019;-49
2022/01/24 03:39:10;;;;;;;;;;;-3.50;99.90;;;;;;5073852;28;19931;-50
2022/01/24 03:41:37;;;;;;;;;;;-3.30;99.90;;;;;;5073442;28;19975;-50
2022/01/24 03:44:05;;;;;;;;;;;-3.20;99.90;;;;;;5073149;28;19971;-51
2022/01/24 03:46:47;;;;;;;;;;;-3.10;99.90;;;;;;5073679;28;19924;-50
2022/01/24 03:49:45;;;;;;;;;;;-3.20;99.90;;;;;;5073633;28;19936;-50
2022/01/24 03:52:07;;;;;;;;;;;-3.10;99.90;;;;;;5062547;28;19925;-50
2022/01/24 03:54:34;;;;;;;;;;;-3.20;99.90;;;;;;5057800;28;20352;-50
2022/01/24 03:57:01;;;;;;;;;;;-3.20;99.90;;;;;;5073621;28;20079;-51
2022/01/24 03:59:29;;;;;;;;;;;-3.20;99.90;;;;;;5060420;28;19925;-50
2022/01/24 04:01:56;;;;;;;;;;;-3.20;99.90;;;;;;5054793;28;19925;-50
2022/01/24 04:04:23;;;;;;;;;;;-3.20;99.90;;;;;;5054017;28;19925;-50
2022/01/24 04:06:50;;;;;;;;;;;-3.10;99.90;;;;;;5053489;28;19925;-50
2022/01/24 04:09:16;;;;;;;;;;;-3.00;99.90;;;;;;5053644;28;19965;-50
2022/01/24 04:11:43;;;;;;;;;;;-3.10;99.90;;;;;;5059736;28;19925;-50
2022/01/24 04:14:27;;;;;;;;;;;-3.30;99.90;;;;;;5074464;28;19978;-50
2022/01/24 04:17:08;;;;;;;;;;;-3.40;99.90;;;;;;5060499;28;19961;-50
2022/01/24 04:22:17;;;;;;;;;;;-3.50;99.90;;;;;;5088226;28;19935;-50
2022/01/24 04:24:45;;;;;;;;;;;-3.60;99.90;;;;;;5088854;28;19924;-50
2022/01/24 04:27:13;;;;;;;;;;;-3.60;99.90;;;;;;5089960;28;19950;-51
2022/01/24 04:29:40;;;;;;;;;;;-3.60;99.90;;;;;;5061063;28;19925;-50
2022/01/24 04:32:08;;;;;;;;;;;-3.70;99.90;;;;;;5066833;28;19929;-50
2022/01/24 04:34:35;;;;;;;;;;;-3.70;99.90;;;;;;5061432;28;19925;-50
2022/01/24 04:37:02;;;;;;;;;;;-3.70;99.90;;;;;;5073156;28;19998;-50
2022/01/24 04:39:29;;;;;;;;;;;-3.70;99.90;;;;;;5059297;28;19925;-50
2022/01/24 04:41:58;;;;;;;;;;;-3.80;99.90;;;;;;5059364;28;19925;-50
2022/01/24 04:44:45;;;;;;;;;;;-3.80;99.90;;;;;;5072596;28;19924;-50
2022/01/24 04:47:20;;;;;;;;;;;-3.80;99.90;;;;;;5061276;28;19990;-50
2022/01/24 04:52:39;;;;;;;;;;;-3.70;99.90;;;;;;5068130;28;19931;-50
2022/01/24 04:55:06;;;;;;;;;;;-3.70;99.90;;;;;;5072750;28;19931;-51
2022/01/24 04:57:32;;;;;;;;;;;-3.70;99.90;;;;;;5072499;28;19994;-50
2022/01/24 05:00:00;;;;;;;;;;;-3.80;99.90;;;;;;5072655;28;19929;-50
2022/01/24 05:02:28;;;;;;;;;;;-3.70;99.90;;;;;;5071944;28;20348;-50
2022/01/24 05:04:56;;;;;;;;;;;-3.80;99.90;;;;;;5096587;22;19981;-48
2022/01/24 05:07:23;;;;;;;;;;;-3.80;99.90;;;;;;5089792;28;20437;-48
2022/01/24 05:09:56;;;;;;;;;;;-3.80;99.90;;;;;;5091004;28;20389;-48
2022/01/24 05:12:31;;;;;;;;;;;-3.70;99.90;;;;;;5091475;28;20382;-47
2022/01/24 05:23:28;;;;;;;;;;;-3.80;99.90;;;;;;5088485;28;20052;-49
2022/01/24 05:25:54;;;;;;;;;;;-3.80;99.90;;;;;;5091483;28;19963;-46
2022/01/24 05:28:22;;;;;;;;;;;-3.70;99.90;;;;;;5091419;28;19924;-46
2022/01/24 05:30:49;;;;;;;;;;;-3.80;99.90;;;;;;5091634;28;19924;-46
2022/01/24 05:33:17;;;;;;;;;;;-3.80;99.90;;;;;;5091380;28;19928;-46
2022/01/24 05:35:44;;;;;;;;;;;-3.80;99.90;;;;;;5091639;28;19928;-46
2022/01/24 05:38:11;;;;;;;;;;;-3.80;99.90;;;;;;5091911;28;20308;-49
2022/01/24 05:40:38;;;;;;;;;;;-3.80;99.90;;;;;;5095618;28;20333;-48
2022/01/24 05:43:08;;;;;;;;;;;-3.80;99.90;;;;;;5095297;28;19927;-48
2022/01/24 05:45:35;;;;;;;;;;;-3.60;99.90;;;;;;5095256;28;20015;-49
2022/01/24 05:48:02;;;;;;;;;;;-3.70;99.90;;;;;;5095185;28;19931;-49
2022/01/24 05:50:30;;;;;;;;;;;-3.70;99.90;;;;;;5095156;28;20363;-47
2022/01/24 05:52:57;;;;;;;;;;;-3.70;99.90;;;;;;5094545;28;19925;-50
2022/01/24 05:55:24;;;;;;;;;;;-3.70;99.90;;;;;;5094801;28;20258;-49
2022/01/24 05:57:52;;;;;;;;;;;-3.70;99.90;;;;;;5094867;28;19924;-49
2022/01/24 06:00:20;;;;;;;;;;;-3.70;99.90;;;;;;5094908;28;20304;-49
2022/01/24 06:02:47;;;;;;;;;;;-3.70;99.90;;;;;;5094986;28;19924;-49
2022/01/24 06:05:13;;;;;;;;;;;-3.70;99.90;;;;;;5093889;28;19981;-49
2022/01/24 06:07:41;;;;;;;;;;;-3.70;99.90;;;;;;5094635;28;19928;-49
2022/01/24 06:10:09;;;;;;;;;;;-3.70;99.90;;;;;;5093821;28;19924;-48
2022/01/24 06:12:36;;;;;;;;;;;-3.70;99.90;;;;;;5093884;28;19924;-50
2022/01/24 06:15:03;;;;;;;;;;;-3.70;99.90;;;;;;5093916;28;19928;-51
2022/01/24 06:17:29;;;;;;;;;;;-3.60;99.90;;;;;;5093636;28;19924;-50
2022/01/24 06:19:56;;;;;;;;;;;-3.60;99.90;;;;;;5093322;28;19924;-49
2022/01/24 06:22:23;;;;;;;;;;;-3.50;99.90;;;;;;5093444;28;19924;-47
2022/01/24 06:24:51;;;;;;;;;;;-3.40;99.90;;;;;;5093514;28;19986;-48
2022/01/24 06:27:18;;;;;;;;;;;-3.40;99.90;;;;;;5093380;28;20385;-48
2022/01/24 06:29:44;;;;;;;;;;;-3.40;99.90;;;;;;5092889;28;19928;-49
2022/01/24 06:32:11;;;;;;;;;;;-3.40;99.90;;;;;;5093709;28;19928;-47
2022/01/24 06:34:38;;;;;;;;;;;-3.40;99.90;;;;;;5093594;28;20368;-47
2022/01/24 06:37:05;;;;;;;;;;;-3.30;99.90;;;;;;5093113;28;19981;-48
2022/01/24 06:39:32;;;;;;;;;;;-3.20;99.90;;;;;;5093022;28;19924;-48
2022/01/24 06:42:12;;;;;;;;;;;-3.10;99.90;;;;;;5093263;28;19927;-48
2022/01/24 06:44:39;;;;;;;;;;;-3.10;99.90;;;;;;5094588;28;19924;-47
2022/01/24 06:47:06;;;;;;;;;;;-3.00;99.90;;;;;;5094481;28;19924;-47
2022/01/24 06:49:33;;;;;;;;;;;-2.90;99.90;;;;;;5080911;28;19973;-47
2022/01/24 06:52:00;;;;;;;;;;;-2.80;99.90;;;;;;5094371;28;20011;-47
2022/01/24 06:54:27;;;;;;;;;;;-2.70;99.90;;;;;;5094491;28;20396;-50
2022/01/24 06:56:54;;;;;;;;;;;-2.60;99.90;;;;;;5094857;28;19924;-46
2022/01/24 06:59:23;;;;;;;;;;;-2.50;99.90;;;;;;5094941;28;19947;-47
2022/01/24 07:01:50;;;;;;;;;;;-2.40;99.90;;;;;;5091285;28;19925;-46
2022/01/24 07:04:17;;;;;;;;;;;-2.30;99.90;;;;;;5093063;28;19924;-45
2022/01/24 07:06:44;;;;;;;;;;;-2.20;99.90;;;;;;5093000;28;20243;-46
2022/01/24 07:09:12;;;;;;;;;;;-2.20;99.90;;;;;;5092524;28;20470;-48
2022/01/24 07:11:39;;;;;;;;;;;-2.10;99.90;;;;;;5092181;28;19939;-50
2022/01/24 07:14:11;;;;;;;;;;;-2.00;99.90;;;;;;5092468;28;19935;-48
2022/01/24 07:17:01;;;;;;;;;;;-1.90;99.90;;;;;;5092283;28;20397;-47
2022/01/24 07:19:27;;;;;;;;;;;-2.00;99.90;;;;;;5092053;28;19960;-47
2022/01/24 07:21:54;;;;;;;;;;;-1.90;99.90;;;;;;5090333;28;19930;-47
2022/01/24 07:24:23;;;;;;;;;;;-1.80;99.90;;;;;;5092851;28;19932;-47
2022/01/24 07:26:50;;;;;;;;;;;-1.90;99.90;;;;;;5092435;28;20350;-47
2022/01/24 07:29:17;;;;;;;;;;;-1.80;99.90;;;;;;5086268;28;19932;-47
2022/01/24 07:31:46;;;;;;;;;;;-1.90;99.90;;;;;;5091173;28;19977;-47
2022/01/24 07:34:13;;;;;;;;;;;-1.80;99.90;;;;;;5092250;28;19924;-48
2022/01/24 07:36:40;;;;;;;;;;;-1.80;99.90;;;;;;5092804;28;19985;-47
2022/01/24 07:39:07;;;;;;;;;;;-1.70;99.90;;;;;;5092400;28;19937;-47
2022/01/24 07:41:41;;;;;;;;;;;-1.70;99.90;;;;;;5092322;28;20390;-48
2022/01/24 07:44:08;;;;;;;;;;;-1.60;99.90;;;;;;5093141;28;20386;-48
2022/01/24 07:46:35;;;;;;;;;;;-1.60;99.90;;;;;;5092332;28;19951;-48
2022/01/24 07:49:04;;;;;;;;;;;-1.50;99.90;;;;;;5091838;28;19928;-46
2022/01/24 07:51:31;;;;;;;;;;;-1.60;99.90;;;;;;5091558;28;20385;-49
2022/01/24 07:53:58;;;;;;;;;;;-1.50;99.90;;;;;;5091989;28;19960;-49
2022/01/24 07:56:24;;;;;;;;;;;-1.40;99.90;;;;;;5091819;28;19951;-50
2022/01/24 07:58:51;;;;;;;;;;;-1.30;99.90;;;;;;5092163;28;19924;-49
2022/01/24 08:01:19;;;;;;;;;;;-1.30;99.90;;;;;;5091480;28;19931;-48
2022/01/24 08:03:46;;;;;;;;;;;-1.20;99.90;;;;;;5091211;28;19932;-47
2022/01/24 08:06:14;;;;;;;;;;;-1.10;99.90;;;;;;5092227;28;19931;-48
2022/01/24 08:08:41;;;;;;;;;;;-1.10;99.90;;;;;;5091948;28;19974;-48
2022/01/24 08:11:08;;;;;;;;;;;-1.00;99.90;;;;;;5092902;28;19924;-47
2022/01/24 08:13:36;;;;;;;;;;;-1.00;99.90;;;;;;5087542;28;19930;-49
2022/01/24 08:16:03;;;;;;;;;;;-1.00;99.90;;;;;;5087561;28;19924;-48
2022/01/24 08:18:30;;;;;;;;;;;-0.90;99.90;;;;;;5091606;28;20335;-48
2022/01/24 08:20:57;;;;;;;;;;;-0.70;99.90;;;;;;5089097;28;19932;-48
2022/01/24 08:23:25;;;;;;;;;;;-0.60;99.90;;;;;;5078726;28;19928;-48
2022/01/24 08:25:52;;;;;;;;;;;-0.40;99.90;;;;;;5092315;28;19928;-49
2022/01/24 08:28:18;;;;;;;;;;;-0.40;99.90;;;;;;5091592;28;20304;-48
2022/01/24 08:30:45;;;;;;;;;;;-0.40;99.90;;;;;;5104208;28;20019;-47
2022/01/24 08:33:12;;;;;;;;;;;-0.30;99.90;;;;;;5109215;28;20390;-48
2022/01/24 08:35:39;;;;;;;;;;;-0.30;99.90;;;;;;5110893;28;20426;-47
2022/01/24 08:38:06;;;;;;;;;;;-0.20;99.90;;;;;;5103803;28;19947;-49
2022/01/24 08:40:35;;;;;;;;;;;0.00;99.90;;;;;;5085876;28;19939;-49
2022/01/24 08:43:06;;;;;;;;;;;0.00;99.90;;;;;;5086947;28;19931;-47
2022/01/24 08:45:53;;;;;;;;;;;0.00;99.90;;;;;;5078713;28;19972;-47
2022/01/24 08:48:20;;;;;;;;;;;0.20;99.90;;;;;;5087299;28;19928;-48
2022/01/24 08:50:48;;;;;;;;;;;0.30;99.90;;;;;;5091867;28;19932;-47
2022/01/24 08:53:15;;;;;;;;;;;0.30;99.90;;;;;;5091889;28;19927;-48
2022/01/24 08:55:43;;;;;;;;;;;0.40;99.90;;;;;;5092034;28;19924;-48
2022/01/24 08:58:13;;;;;;;;;;;0.50;99.90;;;;;;5091534;28;20001;-47
2022/01/24 09:00:40;;;;;;;;;;;0.50;99.90;;;;;;5091360;28;19924;-49
2022/01/24 09:03:10;;;;;;;;;;;0.50;99.90;;;;;;5091726;28;19924;-49
2022/01/24 09:05:37;;;;;;;;;;;0.70;99.90;;;;;;5091416;28;19928;-48
2022/01/24 09:08:05;;;;;;;;;;;0.80;99.90;;;;;;5089162;28;19932;-49
2022/01/24 09:10:32;;;;;;;;;;;0.80;99.90;;;;;;5088153;28;19931;-48
2022/01/24 09:13:00;;;;;;;;;;;0.70;99.90;;;;;;5091103;28;19928;-49
2022/01/24 09:15:27;;;;;;;;;;;0.80;99.90;;;;;;5091291;28;20008;-48
2022/01/24 09:17:54;;;;;;;;;;;0.90;99.90;;;;;;5091699;28;19978;-50
2022/01/24 09:20:20;;;;;;;;;;;1.00;99.90;;;;;;5091220;28;20389;-48
2022/01/24 09:22:49;;;;;;;;;;;1.10;99.90;;;;;;5090429;28;19974;-49
2022/01/24 09:25:17;;;;;;;;;;;1.00;99.90;;;;;;5088817;28;19924;-48
2022/01/24 09:27:45;;;;;;;;;;;1.10;99.90;;;;;;5090851;28;19928;-51
2022/01/24 09:30:14;;;;;;;;;;;1.10;99.90;;;;;;5091201;28;20005;-47
2022/01/24 09:32:42;;;;;;;;;;;1.40;99.90;;;;;;5091595;28;19924;-49
2022/01/24 09:35:10;;;;;;;;;;;1.50;99.90;;;;;;5085823;28;19979;-49
2022/01/24 09:37:37;;;;;;;;;;;1.60;99.90;;;;;;5077028;28;19993;-50
2022/01/24 09:40:04;;;;;;;;;;;1.60;99.90;;;;;;5090234;28;20491;-48
2022/01/24 09:42:32;;;;;;;;;;;1.70;99.90;;;;;;5090848;28;19924;-49
2022/01/24 09:44:59;;;;;;;;;;;1.70;99.90;;;;;;5091011;28;19924;-48
2022/01/24 09:47:28;;;;;;;;;;;1.70;99.90;;;;;;5091024;28;20397;-48
2022/01/24 09:49:55;;;;;;;;;;;1.70;99.90;;;;;;5090720;28;19984;-47
2022/01/24 09:52:22;;;;;;;;;;;1.20;99.90;;;;;;5090422;28;19985;-48
2022/01/24 09:54:48;;;;;;;;;;;1.40;99.90;;;;;;5089748;28;20072;-47
2022/01/24 09:57:15;;;;;;;;;;;1.40;99.90;;;;;;5085440;28;20339;-48
2022/01/24 09:59:42;;;;;;;;;;;1.70;99.90;;;;;;5089007;28;20348;-49
2022/01/24 10:02:09;;;;;;;;;;;1.80;99.90;;;;;;5090965;28;19927;-46
2022/01/24 10:04:38;;;;;;;;;;;1.60;99.90;;;;;;5074782;28;19975;-48
2022/01/24 10:07:06;;;;;;;;;;;1.70;99.90;;;;;;5090262;28;19970;-48
2022/01/24 10:09:36;;;;;;;;;;;1.70;99.90;;;;;;5088425;28;19924;-48
2022/01/24 10:12:12;;;;;;;;;;;1.70;99.90;;;;;;5086841;28;19928;-47
2022/01/24 10:17:24;;;;;;;;;;;1.90;99.90;;;;;;5091062;28;20329;-48
2022/01/24 10:19:52;;;;;;;;;;;2.00;99.90;;;;;;5089214;28;19928;-48
2022/01/24 10:22:21;;;;;;;;;;;2.10;99.90;;;;;;5090368;28;19928;-48
2022/01/24 10:24:51;;;;;;;;;;;2.20;99.90;;;;;;5090780;28;20305;-48
2022/01/24 10:27:19;;;;;;;;;;;2.10;99.90;;;;;;5093355;28;19936;-48
2022/01/24 10:29:48;;;;;;;;;;;2.10;99.90;;;;;;5092605;28;19924;-47
2022/01/24 10:32:27;;;;;;;;;;;2.10;99.90;;;;;;5093219;28;19927;-48
2022/01/24 10:34:55;;;;;;;;;;;2.10;99.90;;;;;;5093071;28;19928;-49
2022/01/24 10:37:22;;;;;;;;;;;2.30;99.90;;;;;;5093467;28;19951;-48
2022/01/24 10:39:57;;;;;;;;;;;2.40;99.90;;;;;;5093008;28;19936;-48
2022/01/24 10:42:52;;;;;;;;;;;2.50;99.90;;;;;;5092644;28;19931;-48
2022/01/24 10:45:22;;;;;;;;;;;2.70;99.90;;;;;;5090630;28;20316;-47
2022/01/24 10:47:50;;;;;;;;;;;2.90;99.90;;;;;;5094178;28;20447;-49
2022/01/24 10:50:24;;;;;;;;;;;3.20;99.90;;;;;;5093842;28;20313;-48
2022/01/24 10:52:51;;;;;;;;;;;3.20;99.90;;;;;;5093687;28;20010;-48
2022/01/24 10:55:20;;;;;;;;;;;3.30;99.90;;;;;;5093406;28;19924;-47
2022/01/24 10:57:48;;;;;;;;;;;3.40;99.90;;;;;;5093780;28;19944;-49
2022/01/24 11:00:17;;;;;;;;;;;3.60;99.90;;;;;;5092740;28;20493;-48
2022/01/24 11:02:45;;;;;;;;;;;3.80;99.90;;;;;;5093650;28;20450;-48
2022/01/24 11:07:48;;;;;;;;;;;3.80;99.90;;;;;;5108920;22;19977;-50
2022/01/24 11:10:15;;;;;;;;;;;3.60;99.90;;;;;;5093859;28;19932;-50
2022/01/24 11:12:42;;;;;;;;;;;3.60;99.90;;;;;;5094200;28;19979;-50
2022/01/24 11:15:10;;;;;;;;;;;3.80;99.90;;;;;;5094606;28;19924;-51
2022/01/24 11:17:37;;;;;;;;;;;3.70;99.90;;;;;;5073888;28;19936;-51
2022/01/24 11:20:06;;;;;;;;;;;3.70;99.90;;;;;;5072718;28;19924;-51
2022/01/24 11:22:35;;;;;;;;;;;3.90;99.90;;;;;;5073664;28;19971;-51
2022/01/24 11:25:06;;;;;;;;;;;4.10;99.90;;;;;;5073425;28;19924;-51
2022/01/24 11:27:36;;;;;;;;;;;4.00;99.90;;;;;;5073442;28;20382;-51
2022/01/24 11:30:07;;;;;;;;;;;4.10;99.90;;;;;;5072670;28;19925;-51
2022/01/24 11:32:38;;;;;;;;;;;4.30;99.90;;;;;;5072417;28;20023;-52
2022/01/24 11:35:05;;;;;;;;;;;4.40;99.90;;;;;;5068242;28;19976;-51
2022/01/24 11:37:34;;;;;;;;;;;4.50;99.90;;;;;;5072391;28;20282;-50
2022/01/24 11:40:00;;;;;;;;;;;4.50;99.90;;;;;;5072879;28;19924;-51
2022/01/24 11:42:34;;;;;;;;;;;4.30;99.90;;;;;;5073471;28;19932;-51
2022/01/24 11:45:05;;;;;;;;;;;4.30;99.90;;;;;;5053231;28;20315;-51
2022/01/24 11:47:32;;;;;;;;;;;4.30;99.90;;;;;;5072436;28;19924;-51
2022/01/24 11:49:59;;;;;;;;;;;4.50;99.90;;;;;;5072475;28;20028;-50
2022/01/24 11:52:30;;;;;;;;;;;4.30;99.90;;;;;;5073118;28;19970;-51
2022/01/24 11:55:06;;;;;;;;;;;4.40;99.90;;;;;;5072615;28;19928;-50
2022/01/24 11:57:36;;;;;;;;;;;4.20;99.90;;;;;;5072738;28;19924;-51
2022/01/24 12:00:16;;;;;;;;;;;4.10;99.90;;;;;;5054491;28;19924;-50
2022/01/24 12:02:44;;;;;;;;;;;4.20;99.90;;;;;;5053388;28;20618;-51
2022/01/24 12:05:12;;;;;;;;;;;4.10;99.90;;;;;;5073209;28;19924;-51
2022/01/24 12:07:41;;;;;;;;;;;4.10;99.90;;;;;;5072677;28;19993;-50
2022/01/24 12:10:23;;;;;;;;;;;4.00;99.90;;;;;;5071548;28;19978;-50
2022/01/24 12:12:52;;;;;;;;;;;4.00;99.90;;;;;;5055586;28;20341;-51
2022/01/24 12:15:37;;;;;;;;;;;3.50;99.90;;;;;;5072743;28;19978;-51
2022/01/24 12:18:04;;;;;;;;;;;3.70;99.90;;;;;;5071779;28;20721;-51
2022/01/24 12:20:46;;;;;;;;;;;4.00;99.90;;;;;;5068789;28;20382;-52
2022/01/24 12:23:32;;;;;;;;;;;4.10;99.90;;;;;;5057117;28;19936;-51
2022/01/24 12:26:02;;;;;;;;;;;4.00;99.90;;;;;;5072486;28;19974;-51
2022/01/24 12:28:34;;;;;;;;;;;4.20;99.90;;;;;;5071714;28;19960;-51
2022/01/24 12:31:03;;;;;;;;;;;4.30;99.90;;;;;;5068152;28;19990;-51
2022/01/24 12:33:30;;;;;;;;;;;4.40;99.90;;;;;;5071410;28;19924;-50
2022/01/24 12:35:57;;;;;;;;;;;4.30;99.90;;;;;;5072541;28;19928;-50
2022/01/24 12:38:24;;;;;;;;;;;4.30;99.90;;;;;;5066948;28;19928;-50
2022/01/24 12:41:14;;;;;;;;;;;4.10;99.90;;;;;;5072644;28;19936;-49
2022/01/24 12:43:53;;;;;;;;;;;4.30;99.90;;;;;;5072266;28;20390;-49
2022/01/24 12:46:20;;;;;;;;;;;4.10;99.90;;;;;;5072287;28;20014;-51
2022/01/24 12:48:48;;;;;;;;;;;4.00;99.90;;;;;;5070959;28;19974;-53
2022/01/24 12:51:15;;;;;;;;;;;3.90;99.90;;;;;;5057990;28;19988;-51
2022/01/24 12:53:41;;;;;;;;;;;3.90;99.90;;;;;;5052401;28;19975;-50
2022/01/24 12:56:08;;;;;;;;;;;3.70;99.90;;;;;;5052257;28;19924;-50
2022/01/24 12:58:36;;;;;;;;;;;3.70;99.90;;;;;;5053857;28;19925;-50
2022/01/24 13:01:16;;;;;;;;;;;3.80;99.90;;;;;;5072174;28;19928;-50
2022/01/24 13:03:55;;;;;;;;;;;4.00;99.90;;;;;;5072095;28;19970;-51
2022/01/24 13:06:22;;;;;;;;;;;3.90;99.90;;;;;;5071684;28;20417;-51
2022/01/24 13:08:56;;;;;;;;;;;3.90;99.90;;;;;;5060116;28;19979;-51
2022/01/24 13:11:23;;;;;;;;;;;3.80;99.90;;;;;;5052154;28;20511;-51
2022/01/24 13:14:06;;;;;;;;;;;3.90;99.90;;;;;;5052482;28;20337;-51
2022/01/24 13:22:15;;;;;;;;;;;3.60;99.90;;;;;;5052644;28;19942;-52
2022/01/24 13:24:57;;;;;;;;;;;3.50;99.90;;;;;;5052108;28;19929;-51
2022/01/24 13:27:33;;;;;;;;;;;3.40;99.90;;;;;;5063485;28;19928;-50
2022/01/24 13:30:00;;;;;;;;;;;3.50;99.90;;;;;;5059935;28;19925;-51
2022/01/24 13:32:42;;;;;;;;;;;3.40;99.90;;;;;;5051840;28;19924;-51
2022/01/24 13:35:12;;;;;;;;;;;3.30;99.90;;;;;;5052418;28;20066;-51
2022/01/24 13:37:40;;;;;;;;;;;3.40;99.90;;;;;;5052404;28;19925;-51
2022/01/24 13:40:07;;;;;;;;;;;3.20;99.90;;;;;;5065134;28;19982;-51
2022/01/24 13:42:34;;;;;;;;;;;3.30;99.90;;;;;;5072383;28;19978;-51
2022/01/24 13:45:01;;;;;;;;;;;3.00;99.90;;;;;;5072724;28;19976;-50
2022/01/24 13:47:28;;;;;;;;;;;3.20;99.90;;;;;;5073549;28;19924;-51
2022/01/24 13:49:56;;;;;;;;;;;3.20;99.90;;;;;;5057589;28;19924;-51
2022/01/24 13:52:25;;;;;;;;;;;3.20;99.90;;;;;;5053844;28;19947;-50
2022/01/24 13:54:52;;;;;;;;;;;3.20;99.90;;;;;;5053608;28;20429;-50
2022/01/24 13:57:19;;;;;;;;;;;3.20;99.90;;;;;;5053203;28;20061;-50
2022/01/24 13:59:46;;;;;;;;;;;3.20;99.90;;;;;;5053433;28;19928;-50
2022/01/24 14:02:14;;;;;;;;;;;3.10;99.90;;;;;;5055797;28;19977;-50
2022/01/24 14:04:42;;;;;;;;;;;3.20;99.90;;;;;;5055824;28;19968;-51
2022/01/24 14:07:11;;;;;;;;;;;3.10;99.90;;;;;;5056150;28;20011;-51
2022/01/24 14:09:39;;;;;;;;;;;3.20;99.90;;;;;;5068153;28;20394;-51
2022/01/24 14:12:07;;;;;;;;;;;3.20;99.90;;;;;;5075063;28;19924;-52
2022/01/24 14:14:47;;;;;;;;;;;3.30;99.90;;;;;;5075749;28;20005;-51
2022/01/24 14:17:29;;;;;;;;;;;3.20;99.90;;;;;;5075488;28;19925;-52
2022/01/24 14:19:57;;;;;;;;;;;3.10;99.90;;;;;;5059802;28;19929;-51
2022/01/24 14:22:36;;;;;;;;;;;3.10;99.90;;;;;;5055538;28;19925;-50
2022/01/24 14:25:03;;;;;;;;;;;3.10;99.90;;;;;;5055652;28;19975;-51
2022/01/24 14:27:40;;;;;;;;;;;3.00;99.90;;;;;;5067192;28;19928;-50
2022/01/24 14:30:08;;;;;;;;;;;2.70;99.90;;;;;;5066632;28;19928;-51
2022/01/24 14:32:38;;;;;;;;;;;2.90;99.90;;;;;;5058785;28;19925;-51
2022/01/24 14:35:06;;;;;;;;;;;2.90;99.90;;;;;;5073660;28;19925;-51
2022/01/24 14:37:51;;;;;;;;;;;2.90;99.90;;;;;;5074937;28;19978;-54
2022/01/24 14:40:43;;;;;;;;;;;2.90;99.90;;;;;;5067447;28;19932;-51
2022/01/24 14:45:54;;;;;;;;;;;2.80;99.90;;;;;;5074992;28;20013;-52
2022/01/24 14:48:21;;;;;;;;;;;2.60;99.90;;;;;;5073392;28;19928;-51
2022/01/24 14:50:48;;;;;;;;;;;2.60;99.90;;;;;;5055109;28;19970;-51
2022/01/24 14:53:16;;;;;;;;;;;2.50;99.90;;;;;;5071049;28;19924;-51
2022/01/24 14:55:43;;;;;;;;;;;2.50;99.90;;;;;;5074694;28;19924;-51
2022/01/24 14:58:10;;;;;;;;;;;2.60;99.90;;;;;;5069323;28;19925;-51
2022/01/24 15:00:37;;;;;;;;;;;2.70;99.90;;;;;;5073266;28;19982;-51
2022/01/24 15:03:03;;;;;;;;;;;2.50;99.90;;;;;;5075065;28;19982;-51
2022/01/24 15:05:30;;;;;;;;;;;2.70;99.90;;;;;;5076390;28;19978;-50
2022/01/24 15:07:57;;;;;;;;;;;2.70;99.90;;;;;;5075081;28;19989;-51
2022/01/24 15:10:25;;;;;;;;;;;2.40;99.90;;;;;;5058518;28;19971;-52
2022/01/24 15:12:54;;;;;;;;;;;2.20;99.90;;;;;;5065689;28;19978;-51
2022/01/24 15:15:23;;;;;;;;;;;2.20;99.90;;;;;;5054982;28;19925;-51
2022/01/24 15:26:04;;;;;;;;;;;2.40;99.90;;;;;;5088060;28;19927;-50
2022/01/24 15:28:31;;;;;;;;;;;2.30;99.90;;;;;;5072195;28;19924;-51
2022/01/24 15:30:57;;;;;;;;;;;2.30;99.90;;;;;;5090431;28;19925;-50
2022/01/24 15:33:24;;;;;;;;;;;2.30;99.90;;;;;;5084252;28;19924;-50
2022/01/24 15:35:52;;;;;;;;;;;2.30;99.90;;;;;;5075811;28;20340;-51
2022/01/24 15:38:19;;;;;;;;;;;2.20;99.90;;;;;;5073206;28;19947;-51
2022/01/24 15:40:46;;;;;;;;;;;2.00;99.90;;;;;;5076579;28;19924;-50
2022/01/24 15:43:39;;;;;;;;;;;2.10;99.90;;;;;;5077096;28;20011;-51
2022/01/24 15:46:44;;;;;;;;;;;1.90;99.90;;;;;;5077724;28;19924;-51
2022/01/24 15:49:00;;;;;;;;;;;1.80;99.90;;;;;;5069665;28;20289;-50
2022/01/24 15:51:27;;;;;;;;;;;1.90;99.90;;;;;;5061970;28;20406;-50
2022/01/24 15:53:55;;;;;;;;;;;2.10;99.90;;;;;;5053714;28;19925;-53